Leixlip, Ireland
Current Conditions -  °F | °C
As of 3:00 AM on Friday 28 Nov 2014 (Local Time) from EIME Reporting Station
Broken Clouds Broken Clouds  
Wind Chill: 44°   Ceiling: 1600
Heat Index: 48°   Visibility: 6mi
Dew Point: 45°   Wind: 10mph
Humidity: 87%   Direction: 80°E
Pressure: 29.5"   Gusts: NA
Location:  53.37°N, 6.49°W
Report Text: EIME 280300Z 08009KT 9999 BKN016 09/07 Q0999
Loading
Personal Weather Stations






























Interactive Weather Map New forecast layout! Learn more

10-Day Weather Forecast

Advertisements
Track Severe Weather on mobile